sensor_id;sensor_type;location;lat;lon;timestamp;pressure;altitude;pressure_sealevel;temperature
80581;BMP180;1474;51.460;7.150;2024-01-27T06:01:10;102473.00;;;16.00
80581;BMP180;1474;51.460;7.150;2024-01-27T06:03:36;102465.00;;;16.00
80581;BMP180;1474;51.460;7.150;2024-01-27T06:06:03;102470.00;;;16.00
80581;BMP180;1474;51.460;7.150;2024-01-27T06:08:29;102481.00;;;16.00
80581;BMP180;1474;51.460;7.150;2024-01-27T06:10:55;102476.00;;;16.00
80581;BMP180;1474;51.460;7.150;2024-01-27T06:13:21;102478.00;;;16.00
80581;BMP180;1474;51.460;7.150;2024-01-27T06:15:46;102484.00;;;16.00
80581;BMP180;1474;51.460;7.150;2024-01-27T06:18:12;102484.00;;;16.00
80581;BMP180;1474;51.460;7.150;2024-01-27T06:20:38;102487.00;;;16.00
80581;BMP180;1474;51.460;7.150;2024-01-27T06:23:05;102489.00;;;16.00
80581;BMP180;1474;51.460;7.150;2024-01-27T06:25:33;102475.00;;;15.90
80581;BMP180;1474;51.460;7.150;2024-01-27T06:27:58;102488.00;;;16.00
80581;BMP180;1474;51.460;7.150;2024-01-27T06:30:24;102494.00;;;16.00
80581;BMP180;1474;51.460;7.150;2024-01-27T06:32:50;102489.00;;;16.00
80581;BMP180;1474;51.460;7.150;2024-01-27T06:35:15;102500.00;;;15.90
80581;BMP180;1474;51.460;7.150;2024-01-27T06:37:41;102489.00;;;16.00
80581;BMP180;1474;51.460;7.150;2024-01-27T06:40:07;102483.00;;;15.90
80581;BMP180;1474;51.460;7.150;2024-01-27T06:42:35;102491.00;;;15.90
80581;BMP180;1474;51.460;7.150;2024-01-27T06:45:01;102487.00;;;15.90
80581;BMP180;1474;51.460;7.150;2024-01-27T06:47:27;102484.00;;;15.90
80581;BMP180;1474;51.460;7.150;2024-01-27T06:49:53;102487.00;;;15.90
80581;BMP180;1474;51.460;7.150;2024-01-27T06:52:18;102489.00;;;15.90
80581;BMP180;1474;51.460;7.150;2024-01-27T06:54:44;102502.00;;;15.90
80581;BMP180;1474;51.460;7.150;2024-01-27T06:57:21;102512.00;;;15.90
80581;BMP180;1474;51.460;7.150;2024-01-27T06:59:56;102513.00;;;15.90
80581;BMP180;1474;51.460;7.150;2024-01-27T07:02:25;102511.00;;;15.90
80581;BMP180;1474;51.460;7.150;2024-01-27T07:04:55;102515.00;;;15.90
80581;BMP180;1474;51.460;7.150;2024-01-27T07:07:28;102513.00;;;15.90
80581;BMP180;1474;51.460;7.150;2024-01-27T07:09:55;102531.00;;;15.90
80581;BMP180;1474;51.460;7.150;2024-01-27T07:12:21;102521.00;;;15.90
80581;BMP180;1474;51.460;7.150;2024-01-27T07:14:47;102520.00;;;15.90
80581;BMP180;1474;51.460;7.150;2024-01-27T07:17:13;102519.00;;;15.90
80581;BMP180;1474;51.460;7.150;2024-01-27T07:19:39;102518.00;;;15.90
80581;BMP180;1474;51.460;7.150;2024-01-27T07:22:05;102526.00;;;15.90
80581;BMP180;1474;51.460;7.150;2024-01-27T07:24:31;102536.00;;;15.90
80581;BMP180;1474;51.460;7.150;2024-01-27T07:26:59;102542.00;;;15.90
80581;BMP180;1474;51.460;7.150;2024-01-27T07:29:26;102536.00;;;15.90
80581;BMP180;1474;51.460;7.150;2024-01-27T07:31:52;102541.00;;;15.90
80581;BMP180;1474;51.460;7.150;2024-01-27T07:34:18;102536.00;;;15.90
80581;BMP180;1474;51.460;7.150;2024-01-27T07:36:44;102541.00;;;15.90
80581;BMP180;1474;51.460;7.150;2024-01-27T07:39:09;102544.00;;;15.80
80581;BMP180;1474;51.460;7.150;2024-01-27T07:41:35;102538.00;;;15.80
80581;BMP180;1474;51.460;7.150;2024-01-27T07:44:13;102536.00;;;15.80
80581;BMP180;1474;51.460;7.150;2024-01-27T07:46:39;102546.00;;;15.80
80581;BMP180;1474;51.460;7.150;2024-01-27T07:49:07;102539.00;;;15.80
80581;BMP180;1474;51.460;7.150;2024-01-27T07:51:33;102539.00;;;15.80
80581;BMP180;1474;51.460;7.150;2024-01-27T07:53:59;102544.00;;;15.80
80581;BMP180;1474;51.460;7.150;2024-01-27T07:56:26;102549.00;;;15.80
80581;BMP180;1474;51.460;7.150;2024-01-27T07:58:52;102544.00;;;15.80
80581;BMP180;1474;51.460;7.150;2024-01-27T08:01:19;102550.00;;;15.80
80581;BMP180;1474;51.460;7.150;2024-01-27T08:03:45;102541.00;;;15.80
80581;BMP180;1474;51.460;7.150;2024-01-27T08:06:22;102556.00;;;15.80
80581;BMP180;1474;51.460;7.150;2024-01-27T08:08:48;102556.00;;;15.80
80581;BMP180;1474;51.460;7.150;2024-01-27T08:11:15;102557.00;;;15.80
80581;BMP180;1474;51.460;7.150;2024-01-27T08:13:42;102559.00;;;15.80
80581;BMP180;1474;51.460;7.150;2024-01-27T08:16:08;102564.00;;;15.80
80581;BMP180;1474;51.460;7.150;2024-01-27T08:18:41;102569.00;;;15.80
80581;BMP180;1474;51.460;7.150;2024-01-27T08:21:10;102553.00;;;15.80
80581;BMP180;1474;51.460;7.150;2024-01-27T08:23:37;102567.00;;;15.80
80581;BMP180;1474;51.460;7.150;2024-01-27T08:26:03;102562.00;;;15.80
80581;BMP180;1474;51.460;7.150;2024-01-27T08:28:29;102568.00;;;15.80
80581;BMP180;1474;51.460;7.150;2024-01-27T08:30:54;102561.00;;;15.80
80581;BMP180;1474;51.460;7.150;2024-01-27T08:33:20;102565.00;;;15.80
80581;BMP180;1474;51.460;7.150;2024-01-27T08:35:47;102561.00;;;15.80
80581;BMP180;1474;51.460;7.150;2024-01-27T08:38:16;102564.00;;;15.80
80581;BMP180;1474;51.460;7.150;2024-01-27T08:40:42;102562.00;;;15.80
80581;BMP180;1474;51.460;7.150;2024-01-27T08:43:07;102566.00;;;15.90
80581;BMP180;1474;51.460;7.150;2024-01-27T08:45:33;102571.00;;;16.50
80581;BMP180;1474;51.460;7.150;2024-01-27T08:47:59;102572.00;;;17.10
80581;BMP180;1474;51.460;7.150;2024-01-27T08:50:25;102570.00;;;17.50
80581;BMP180;1474;51.460;7.150;2024-01-27T08:52:50;102561.00;;;18.00
80581;BMP180;1474;51.460;7.150;2024-01-27T08:55:16;102575.00;;;18.30
80581;BMP180;1474;51.460;7.150;2024-01-27T08:57:46;102583.00;;;18.50
80581;BMP180;1474;51.460;7.150;2024-01-27T09:00:12;102581.00;;;18.50
80581;BMP180;1474;51.460;7.150;2024-01-27T09:02:39;102585.00;;;18.60
80581;BMP180;1474;51.460;7.150;2024-01-27T09:05:05;102581.00;;;18.60
80581;BMP180;1474;51.460;7.150;2024-01-27T09:07:31;102577.00;;;18.80
80581;BMP180;1474;51.460;7.150;2024-01-27T09:09:57;102578.00;;;18.90
80581;BMP180;1474;51.460;7.150;2024-01-27T09:12:22;102582.00;;;19.00
80581;BMP180;1474;51.460;7.150;2024-01-27T09:14:48;102582.00;;;19.20
80581;BMP180;1474;51.460;7.150;2024-01-27T09:17:14;102577.00;;;19.40
80581;BMP180;1474;51.460;7.150;2024-01-27T09:19:40;102581.00;;;19.40
80581;BMP180;1474;51.460;7.150;2024-01-27T09:22:05;102578.00;;;19.60
80581;BMP180;1474;51.460;7.150;2024-01-27T09:24:31;102573.00;;;19.80
80581;BMP180;1474;51.460;7.150;2024-01-27T09:26:57;102578.00;;;20.00
80581;BMP180;1474;51.460;7.150;2024-01-27T09:29:23;102568.00;;;20.20
80581;BMP180;1474;51.460;7.150;2024-01-27T09:31:49;102575.00;;;20.30
80581;BMP180;1474;51.460;7.150;2024-01-27T09:34:15;102583.00;;;20.20
80581;BMP180;1474;51.460;7.150;2024-01-27T09:36:40;102579.00;;;20.10
80581;BMP180;1474;51.460;7.150;2024-01-27T09:39:06;102592.00;;;20.10
80581;BMP180;1474;51.460;7.150;2024-01-27T09:41:32;102576.00;;;20.20
80581;BMP180;1474;51.460;7.150;2024-01-27T09:44:02;102589.00;;;20.40
80581;BMP180;1474;51.460;7.150;2024-01-27T09:46:29;102586.00;;;20.60
80581;BMP180;1474;51.460;7.150;2024-01-27T09:48:56;102587.00;;;20.70
80581;BMP180;1474;51.460;7.150;2024-01-27T09:51:22;102583.00;;;20.80
80581;BMP180;1474;51.460;7.150;2024-01-27T09:53:49;102585.00;;;20.80
80581;BMP180;1474;51.460;7.150;2024-01-27T09:56:17;102580.00;;;20.70
80581;BMP180;1474;51.460;7.150;2024-01-27T09:58:45;102584.00;;;20.80
80581;BMP180;1474;51.460;7.150;2024-01-27T10:01:11;102587.00;;;20.80
80581;BMP180;1474;51.460;7.150;2024-01-27T10:03:40;102593.00;;;20.90
80581;BMP180;1474;51.460;7.150;2024-01-27T10:06:10;102605.00;;;20.90
80581;BMP180;1474;51.460;7.150;2024-01-27T10:08:37;102596.00;;;20.90
80581;BMP180;1474;51.460;7.150;2024-01-27T10:11:09;102598.00;;;20.70
80581;BMP180;1474;51.460;7.150;2024-01-27T10:13:39;102605.00;;;20.80
80581;BMP180;1474;51.460;7.150;2024-01-27T10:16:08;102621.00;;;21.00
80581;BMP180;1474;51.460;7.150;2024-01-27T10:18:35;102618.00;;;21.10
80581;BMP180;1474;51.460;7.150;2024-01-27T10:21:21;102610.00;;;21.10
80581;BMP180;1474;51.460;7.150;2024-01-27T10:23:49;102602.00;;;21.10
80581;BMP180;1474;51.460;7.150;2024-01-27T10:26:15;102605.00;;;21.00
80581;BMP180;1474;51.460;7.150;2024-01-27T10:28:40;102605.00;;;21.10
80581;BMP180;1474;51.460;7.150;2024-01-27T10:31:12;102604.00;;;21.30
80581;BMP180;1474;51.460;7.150;2024-01-27T10:33:38;102620.00;;;21.50
80581;BMP180;1474;51.460;7.150;2024-01-27T10:36:05;102618.00;;;21.50
80581;BMP180;1474;51.460;7.150;2024-01-27T10:38:40;102618.00;;;21.40
80581;BMP180;1474;51.460;7.150;2024-01-27T10:41:09;102615.00;;;21.30
80581;BMP180;1474;51.460;7.150;2024-01-27T10:43:39;102614.00;;;21.30
80581;BMP180;1474;51.460;7.150;2024-01-27T10:46:07;102610.00;;;21.40
80581;BMP180;1474;51.460;7.150;2024-01-27T10:48:37;102600.00;;;21.50
80581;BMP180;1474;51.460;7.150;2024-01-27T10:51:09;102603.00;;;21.50
80581;BMP180;1474;51.460;7.150;2024-01-27T10:53:36;102603.00;;;21.50
80581;BMP180;1474;51.460;7.150;2024-01-27T10:56:06;102598.00;;;21.40
80581;BMP180;1474;51.460;7.150;2024-01-27T10:58:35;102604.00;;;21.30
80581;BMP180;1474;51.460;7.150;2024-01-27T11:01:11;102594.00;;;18.20
80581;BMP180;1474;51.460;7.150;2024-01-27T11:03:39;102601.00;;;19.50
80581;BMP180;1474;51.460;7.150;2024-01-27T11:06:07;102609.00;;;20.60
80581;BMP180;1474;51.460;7.150;2024-01-27T11:08:34;102603.00;;;21.30
80581;BMP180;1474;51.460;7.150;2024-01-27T11:11:01;102608.00;;;21.60
80581;BMP180;1474;51.460;7.150;2024-01-27T11:13:33;102597.00;;;21.80
80581;BMP180;1474;51.460;7.150;2024-01-27T11:15:59;102612.00;;;21.90
80581;BMP180;1474;51.460;7.150;2024-01-27T11:18:26;102622.00;;;21.80
